Flight Track Log - Related Links

Times and Time Zones

All times are in EST time to prevent confusion due to time zone crossing. See the SWA1518 flight status page for this flight to view local times or setup timezone preferences in your user account.

Time Position Orientation Groundspeed Altitude Reporting Facility
EST Latitude Longitude Course Direction KTS MPH feet Rate Location/Type
Sat 05:39:50 PM 38.8000 -90.4833 303° West 250 288 4,200  Level Gateway (St. Louis) TRACON
Sat 05:40:56 PM 38.8197 -90.5719 286° West 242 278 7,600 2,813 Climbing Kansas City Center
Sat 05:41:58 PM 38.8406 -90.6536 288° West 242 278 10,200 1,512 Climbing Kansas City Center
Sat 05:42:59 PM 38.8650 -90.7494 288° West 275 316 10,700 1,366 Climbing Kansas City Center
Sat 05:44:00 PM 38.7400 -90.7440 300° West  Level FlightAware Approximate
Sat 05:44:01 PM 38.8947 -90.8628 289° West 327 376 13,000  Level Kansas City Center
Sat 05:45:03 PM 38.9292 -91.0017 288° West 338 389 15,000 1,839 Climbing Kansas City Center
Sat 05:46:05 PM 38.9600 -91.1267 288° West 358 412 16,800 1,790 Climbing Kansas City Center
Sat 05:47:07 PM 38.9836 -91.2539 283° West 364 419 18,700 1,707 Climbing Kansas City Center
Sat 05:48:08 PM 39.0025 -91.3819 281° West 364 419 20,300 1,415 Climbing Kansas City Center
Sat 05:49:10 PM 39.0219 -91.5119 281° West 366 421 21,600 1,210 Climbing Kansas City Center
Sat 05:50:12 PM 39.0425 -91.6458 281° West 377 434 22,800 1,548 Climbing Kansas City Center
Sat 05:51:14 PM 39.0653 -91.8028 281° West 387 445 24,800 2,049 Climbing Kansas City Center
Sat 05:52:15 PM 39.0706 -91.9292 273° West 362 417 27,000 1,756 Climbing Kansas City Center
Sat 05:53:17 PM 39.0719 -92.0539 271° West 352 405 28,400 1,403 Climbing Kansas City Center
Sat 05:54:19 PM 39.0706 -92.1756 269° West 348 400 29,900 1,403 Climbing Kansas City Center
Sat 05:55:21 PM 39.0700 -92.2917 270° West 339 390 31,300 1,220 Climbing Kansas City Center
Sat 05:56:22 PM 39.0689 -92.4297 269° West 330 380 32,400 976 Climbing Kansas City Center
Sat 05:57:24 PM 39.0681 -92.5422 269° West 324 373 33,300 774 Climbing Kansas City Center
Sat 05:58:26 PM 39.0678 -92.6547 270° West 321 369 34,000 341 Climbing Kansas City Center
Sat 05:59:27 PM 39.0669 -92.7633 269° West 319 367 34,000  Level Kansas City Center
Sat 06:00:29 PM 39.0653 -92.8739 269° West 316 364 34,000  Level Kansas City Center
Sat 06:01:31 PM 39.0647 -92.9853 270° West 316 364 34,000  Level Kansas City Center
Sat 06:02:32 PM 39.0633 -93.0983 269° West 316 364 34,000  Level Kansas City Center
Sat 06:03:34 PM 39.0619 -93.2100 269° West 316 364 34,000  Level Kansas City Center
Sat 06:04:36 PM 39.0600 -93.3456 269° West 316 364 34,000  Level Kansas City Center
Sat 06:05:37 PM 39.0586 -93.4494 269° West 316 364 34,000  Level Kansas City Center
Sat 06:06:39 PM 39.0581 -93.5769 270° West 316 364 34,000  Level Kansas City Center
Sat 06:07:41 PM 39.0564 -93.6858 269° West 317 365 34,000  Level Kansas City Center
Sat 06:08:42 PM 39.0544 -93.8128 269° West 318 366 34,000  Level Kansas City Center
Sat 06:09:44 PM 39.0525 -93.9222 269° West 319 367 34,000  Level Kansas City Center
Sat 06:10:45 PM 39.0497 -94.0506 268° West 320 368 34,000  Level Kansas City Center
Sat 06:11:47 PM 39.0478 -94.1600 269° West 321 369 34,000  Level Kansas City Center
Sat 06:12:49 PM 39.0456 -94.2700 269° West 321 369 34,000  Level Kansas City Center
Sat 06:13:50 PM 39.0425 -94.3972 268° West 320 368 34,000  Level Kansas City Center
Sat 06:14:52 PM 39.0400 -94.5056 268° West 319 367 34,000  Level Kansas City Center
Sat 06:15:53 PM 39.0375 -94.6319 269° West 318 366 34,000  Level Kansas City Center
Sat 06:16:55 PM 39.0347 -94.7408 268° West 318 366 34,000  Level Kansas City Center
Sat 06:17:56 PM 39.0319 -94.8486 268° West 318 366 34,000  Level Kansas City Center
Sat 06:18:58 PM 39.0278 -94.9753 268° West 318 366 34,000  Level Kansas City Center
Sat 06:20:00 PM 39.0247 -95.0842 268° West 317 365 34,000  Level Kansas City Center
Sat 06:21:01 PM 39.0222 -95.2072 269° West 321 369 34,000  Level Kansas City Center
Sat 06:22:03 PM 39.0183 -95.3261 268° West 320 368 34,000  Level Kansas City Center
Sat 06:23:04 PM 39.0142 -95.4461 267° West 322 371 34,000  Level Kansas City Center
Sat 06:24:06 PM 39.0108 -95.5647 268° West 321 369 34,000  Level Kansas City Center
Sat 06:25:08 PM 39.0078 -95.6767 268° West 325 374 34,000  Level Kansas City Center
Sat 06:26:09 PM 39.0031 -95.7903 267° West 325 374 34,000  Level Kansas City Center
Sat 06:27:11 PM 38.9986 -95.9208 268° West 331 381 34,000  Level Kansas City Center
Sat 06:28:13 PM 38.9950 -96.0339 268° West 330 380 34,000  Level Kansas City Center
Sat 06:29:14 PM 38.9892 -96.1647 267° West 329 379 34,000  Level Kansas City Center
Sat 06:30:16 PM 38.9856 -96.2761 268° West 329 379 34,000  Level Kansas City Center
Sat 06:31:17 PM 38.9808 -96.3886 267° West 328 377 34,000  Level Kansas City Center
Sat 06:32:19 PM 38.9747 -96.5211 267° West 328 377 34,000  Level Kansas City Center
Sat 06:33:20 PM 38.9714 -96.6397 268° West 328 377 34,000  Level Kansas City Center
Sat 06:34:22 PM 38.9661 -96.7553 267° West 328 377 34,000  Level Kansas City Center
Sat 06:35:23 PM 38.9619 -96.8731 267° West 328 377 34,000  Level Kansas City Center
Sat 06:36:25 PM 38.9569 -96.9894 267° West 328 377 34,000  Level Kansas City Center
Sat 06:37:26 PM 38.9522 -97.1056 267° West 328 377 34,000  Level Kansas City Center
Sat 06:38:28 PM 38.9469 -97.2219 267° West 328 377 34,000  Level Kansas City Center
Sat 06:39:29 PM 38.9414 -97.3372 266° West 328 377 34,000  Level Kansas City Center
Sat 06:40:30 PM 38.9350 -97.4753 267° West 327 376 34,000  Level Kansas City Center
Sat 06:41:32 PM 38.9289 -97.5792 266° West 325 374 34,000  Level Kansas City Center
Sat 06:42:33 PM 38.9228 -97.7086 267° West 325 374 34,000  Level Kansas City Center
Sat 06:43:34 PM 38.9169 -97.8181 266° West 324 373 34,000  Level Kansas City Center
Sat 06:44:36 PM 38.9119 -97.9325 267° West 324 373 34,000  Level Kansas City Center
Sat 06:45:37 PM 38.9061 -98.0467 266° West 324 373 34,000  Level Kansas City Center
Sat 06:46:39 PM 38.8997 -98.1608 266° West 324 373 34,000  Level Kansas City Center
Sat 06:47:40 PM 38.8917 -98.2972 266° West 323 372 34,000  Level Kansas City Center
Sat 06:48:41 PM 38.8861 -98.4122 266° West 323 372 34,000  Level Kansas City Center
Sat 06:49:43 PM 38.8792 -98.5258 266° West 323 372 34,000  Level Kansas City Center
Sat 06:50:44 PM 38.8725 -98.6406 266° West 323 372 34,000  Level Kansas City Center
Sat 06:51:45 PM 38.8661 -98.7542 266° West 323 372 34,000  Level Kansas City Center
Sat 06:52:47 PM 38.8594 -98.8672 266° West 321 369 34,000  Level Kansas City Center
Sat 06:53:48 PM 38.8531 -98.9811 266° West 321 369 34,000  Level Kansas City Center
Sat 06:54:50 PM 38.8458 -99.0942 265° West 321 369 34,000  Level Kansas City Center
Sat 06:55:51 PM 38.8358 -99.2306 265° West 321 369 34,000  Level Kansas City Center
Sat 06:56:53 PM 38.8289 -99.3450 266° West 321 369 34,000  Level Kansas City Center
Sat 06:57:54 PM 38.8222 -99.4569 266° West 321 369 34,000  Level Kansas City Center
Sat 06:58:56 PM 38.8139 -99.5694 265° West 321 369 34,000  Level Kansas City Center
Sat 06:59:57 PM 38.8067 -99.6967 266° West 321 369 34,000  Level Kansas City Center
Sat 07:00:59 PM 38.7989 -99.8069 265° West 321 369 34,000  Level Kansas City Center
Sat 07:02:00 PM 38.7892 -99.9347 264° West 321 369 34,000  Level Kansas City Center
Sat 07:03:02 PM 38.7814 -100.0456 265° West 323 372 34,000  Level Kansas City Center
Sat 07:04:03 PM 38.7739 -100.1547 265° West 324 373 34,000  Level Kansas City Center
Sat 07:05:05 PM 38.7642 -100.2844 265° West 324 373 34,000  Level Kansas City Center
Sat 07:06:06 PM 38.7567 -100.3944 265° West 324 373 34,000  Level Kansas City Center
Sat 07:06:45 PM 38.7514 -100.4664 265° West 324 373 34,000  Level Denver Center
Sat 07:07:46 PM 38.7411 -100.5925 264° West 324 373 34,000  Level Denver Center
Sat 07:08:48 PM 38.7336 -100.7022 265° West 323 372 34,000  Level Denver Center
Sat 07:09:49 PM 38.7247 -100.8100 264° West 322 371 34,000  Level Denver Center
Sat 07:10:51 PM 38.7144 -100.9364 264° West 322 371 34,000  Level Denver Center
Sat 07:11:52 PM 38.7067 -101.0447 265° West 322 371 34,000  Level Denver Center
Sat 07:12:54 PM 38.6967 -101.1711 264° West 321 369 34,000  Level Denver Center
Sat 07:13:55 PM 38.6878 -101.2783 264° West 321 369 34,000  Level Denver Center
Sat 07:14:57 PM 38.6775 -101.4036 264° West 319 367 34,000  Level Denver Center
Sat 07:15:58 PM 38.6683 -101.5114 264° West 319 367 34,000  Level Denver Center
Sat 07:16:59 PM 38.6597 -101.6200 264° West 319 367 34,000  Level Denver Center
Sat 07:18:01 PM 38.6492 -101.7444 264° West 319 367 34,000  Level Denver Center
Sat 07:19:02 PM 38.6400 -101.8519 264° West 319 367 34,000  Level Denver Center
Sat 07:20:04 PM 38.6292 -101.9786 264° West 320 368 34,000  Level Denver Center
Sat 07:21:05 PM 38.6189 -102.0844 263° West 319 367 34,000  Level Denver Center
Sat 07:22:07 PM 38.6069 -102.2108 263° West 319 367 34,000  Level Denver Center
Sat 07:23:08 PM 38.5986 -102.3186 264° West 320 368 34,000 -293 Level Denver Center
Sat 07:24:10 PM 38.5872 -102.4294 263° West 325 374 33,400 -829 Descending Denver Center
Sat 07:25:11 PM 38.5764 -102.5558 264° West 324 373 32,300 -1,024 Descending Denver Center
Sat 07:26:13 PM 38.5661 -102.6661 263° West 325 374 31,300 -976 Descending Denver Center
Sat 07:27:14 PM 38.5547 -102.7961 264° West 328 377 30,300 -927 Descending Denver Center
Sat 07:28:16 PM 38.5431 -102.9108 263° West 335 386 29,400 -829 Descending Denver Center
Sat 07:29:17 PM 38.5319 -103.0314 263° West 354 407 28,600 -683 Descending Denver Center
Sat 07:30:19 PM 38.5167 -103.1792 263° West 373 429 28,000 -293 Descending Denver Center
Sat 07:31:20 PM 38.5044 -103.3056 263° West 373 429 28,000  Level Denver Center
Sat 07:32:22 PM 38.4906 -103.4511 263° West 372 428 28,000  Level Denver Center
Sat 07:33:24 PM 38.4775 -103.5806 263° West 368 423 28,000  Level Denver Center
Sat 07:34:25 PM 38.4644 -103.7061 262° West 372 428 28,000  Level Denver Center
Sat 07:35:27 PM 38.4492 -103.8497 262° West 371 427 28,000 -49 Level Denver Center
Sat 07:36:28 PM 38.4369 -103.9736 263° West 368 423 27,900 -444 Descending Denver Center
Sat 07:37:42 PM 38.4217 -104.1203 262° West 372 428 27,000 -838 Descending Denver Center
Sat 07:38:44 PM 38.4056 -104.2669 262° West 372 428 26,000 -484 Descending Denver Center
Sat 07:39:46 PM 38.3897 -104.4147 262° West 374 430 26,000  Level Denver Center
Sat 07:40:47 PM 38.3767 -104.5419 263° West 375 432 26,000  Level Denver Center
Sat 07:41:49 PM 38.3603 -104.6911 262° West 378 435 26,000  Level Denver Center
Sat 07:42:50 PM 38.3450 -104.8208 261° West 383 441 26,000  Level Denver Center
Sat 07:43:52 PM 38.3308 -104.9483 262° West 383 441 26,000  Level Denver Center
Sat 07:44:54 PM 38.3133 -105.0997 262° West 383 441 26,000  Level Denver Center
Sat 07:45:55 PM 38.2986 -105.2306 262° West 391 450 26,000  Level Denver Center
Sat 07:46:57 PM 38.2814 -105.3814 262° West 390 449 26,000  Level Denver Center
Sat 07:47:58 PM 38.2664 -105.5094 262° West 387 445 26,000  Level Denver Center
Sat 07:49:00 PM 38.2481 -105.6594 261° West 387 445 26,000  Level Denver Center
Sat 07:50:01 PM 38.2333 -105.7903 262° West 379 436 26,000  Level Denver Center
Sat 07:51:03 PM 38.2178 -105.9092 261° West 377 434 26,000  Level Denver Center
Sat 07:52:04 PM 38.1964 -106.0536 259° West 374 430 26,000  Level Denver Center
Sat 07:53:06 PM 38.1756 -106.1742 258° West 372 428 26,000  Level Denver Center
Sat 07:54:07 PM 38.1553 -106.3006 259° West 367 422 26,000  Level Denver Center
Sat 07:55:09 PM 38.1342 -106.4247 258° West 363 418 26,000  Level Denver Center
Sat 07:56:10 PM 38.1097 -106.5706 258° West 359 413 26,000 829 Level Denver Center
Sat 07:57:12 PM 38.0903 -106.6892 258° West 359 413 27,700 1,415 Climbing Denver Center
Sat 07:58:13 PM 38.0706 -106.8044 258° West 353 406 28,900 1,122 Climbing Denver Center
Sat 07:59:15 PM 38.0475 -106.9386 258° West 349 402 30,000 537 Climbing Denver Center
Sat 08:00:16 PM 38.0283 -107.0528 258° West 347 399 30,000  Level Denver Center
Sat 08:01:18 PM 38.0039 -107.1872 257° West 349 402 30,000  Level Denver Center
Sat 08:02:19 PM 37.9842 -107.3036 258° West 349 402 30,000  Level Denver Center
Sat 08:03:21 PM 37.9617 -107.4314 257° West 353 406 30,000  Level Denver Center
Sat 08:04:34 PM 37.9403 -107.5453 257° West 351 404 30,000  Level Denver Center
Sat 08:05:36 PM 37.9133 -107.7008 258° West 351 404 30,000  Level Denver Center
Sat 08:06:50 PM 37.8931 -107.8169 258° West 352 405 30,000  Level Denver Center
Sat 08:07:52 PM 37.8642 -107.9697 257° West 352 405 30,000  Level Denver Center
Sat 08:08:53 PM 37.8400 -108.1061 257° West 352 405 30,000  Level Denver Center
Sat 08:10:07 PM 37.8192 -108.2200 257° West 352 405 30,000  Level Denver Center
Sat 08:11:08 PM 37.7906 -108.3728 257° West 351 404 30,000  Level Denver Center
Sat 08:12:10 PM 37.7692 -108.4919 257° West 359 413 30,000  Level Denver Center
Sat 08:13:11 PM 37.7464 -108.6094 256° West 359 413 30,000  Level Denver Center
Sat 08:14:13 PM 37.7211 -108.7469 257° West 360 414 30,000 244 Level Denver Center
Sat 08:15:14 PM 37.6994 -108.8628 257° West 359 413 30,500 976 Climbing Denver Center
Sat 08:16:16 PM 37.6744 -108.9914 256° West 346 398 32,000 1,756 Climbing Denver Center
Sat 08:17:17 PM 37.6531 -109.1022 256° West 342 394 34,100 1,328 Climbing Denver Center
Sat 08:18:18 PM 37.6289 -109.2231 256° West 326 375 34,700 585 Climbing Denver Center
Sat 08:19:20 PM 37.6072 -109.3364 256° West 343 395 35,300 634 Climbing Denver Center
Sat 08:20:21 PM 37.5864 -109.4450 256° West 340 391 36,000 341 Climbing Denver Center
Sat 08:21:23 PM 37.5606 -109.5747 256° West 340 391 36,000  Level Denver Center
Sat 08:22:24 PM 37.5383 -109.6856 256° West 341 392 36,000  Level Denver Center
Sat 08:23:25 PM 37.5136 -109.8167 257° West 344 396 36,000  Level Denver Center
Sat 08:24:27 PM 37.4911 -109.9292 256° West 344 396 36,000  Level Denver Center
Sat 08:25:28 PM 37.4683 -110.0406 256° West 344 396 36,000  Level Denver Center
Sat 08:26:29 PM 37.4419 -110.1728 256° West 346 398 36,000  Level Denver Center
Sat 08:27:31 PM 37.4211 -110.2744 256° West 345 397 36,000  Level Denver Center
Sat 08:28:32 PM 37.3928 -110.4125 256° West 343 395 36,000  Level Denver Center
Sat 08:29:33 PM 37.3686 -110.5286 255° West 342 394 36,000  Level Denver Center
Sat 08:30:35 PM 37.3450 -110.6428 255° West 341 392 36,000  Level Denver Center
Sat 08:31:36 PM 37.3219 -110.7578 256° West 341 392 36,000  Level Denver Center
Sat 08:32:37 PM 37.2981 -110.8722 255° West 341 392 36,000  Level Denver Center
Sat 08:33:39 PM 37.2733 -110.9878 255° West 343 395 36,000  Level Denver Center
Sat 08:34:40 PM 37.2472 -111.1050 254° West 344 396 36,000 -246 Level Denver Center
Sat 08:35:41 PM 37.2236 -111.2236 256° West 349 402 35,500 -732 Descending Denver Center
Sat 08:36:43 PM 37.1989 -111.3381 255° West 342 394 34,500 -976 Descending Denver Center
Sat 08:37:44 PM 37.1753 -111.4475 255° West 328 377 33,500 -1,230 Descending Denver Center
Sat 08:38:45 PM 37.1489 -111.5839 256° West 330 380 32,000 -732 Descending Denver Center
Sat 08:39:47 PM 37.1228 -111.7011 254° West 342 394 32,000  Level Denver Center
Sat 08:40:48 PM 37.0917 -111.8194 252° West 351 404 32,000  Level Denver Center
Sat 08:41:49 PM 37.0622 -111.9367 253° West 351 404 32,000  Level Denver Center
Sat 08:42:50 PM 37.0331 -112.0558 253° West 352 405 32,000  Level Denver Center
Sat 08:43:52 PM 37.0022 -112.1761 252° West 357 411 32,000  Level Denver Center
Sat 08:45:05 PM 36.9647 -112.3203 252° West 360 414 32,000  Level Denver Center
Sat 08:46:22 PM 36.9200 -112.4931 252° West 365 420 32,000  Level Los Angeles Center
Sat 08:47:24 PM 36.8892 -112.6144 252° West 365 420 32,000  Level Los Angeles Center
Sat 08:48:25 PM 36.8583 -112.7372 253° West 367 422 32,000  Level Los Angeles Center
Sat 08:49:27 PM 36.8264 -112.8592 252° West 368 423 32,000  Level Los Angeles Center
Sat 08:50:28 PM 36.7942 -112.9825 252° West 372 428 32,000  Level Los Angeles Center
Sat 08:51:29 PM 36.7631 -113.1056 253° West 371 427 32,000  Level Los Angeles Center
Sat 08:52:31 PM 36.7306 -113.2303 252° West 375 432 32,000  Level Los Angeles Center
Sat 08:53:32 PM 36.6978 -113.3569 252° West 382 440 32,000 -1,122 Level Los Angeles Center
Sat 08:54:34 PM 36.6650 -113.4806 252° West 379 436 29,700 -2,244 Descending Los Angeles Center
Sat 08:55:35 PM 36.6306 -113.6067 251° West 383 441 27,400 -2,488 Descending Los Angeles Center
Sat 08:56:37 PM 36.5914 -113.7581 252° West 383 441 24,600 -2,439 Descending Los Angeles Center
Sat 08:57:38 PM 36.5594 -113.8789 252° West 372 428 22,400 -2,164 Descending Los Angeles Center
Sat 08:58:39 PM 36.5267 -113.9975 251° West 366 421 20,200 -2,195 Descending Los Angeles Center
Sat 08:59:41 PM 36.4947 -114.1119 251° West 359 413 17,900 -2,146 Descending Los Angeles Center
Sat 09:00:42 PM 36.4644 -114.2242 251° West 346 398 15,800 -2,063 Descending Los Angeles Center
Sat 09:01:17 PM 36.4453 -114.2939 251° West 342 394 14,600 -1,935 Descending Los Angeles Center
Sat 09:01:44 PM 36.4361 -114.3317 253° West 332 382 13,800 -1,964 Descending Los Angeles Center
Sat 09:02:12 PM 36.4194 -114.3911 251° West 325 374 12,800 -1,574 Descending Los Angeles Center
Sat 09:02:45 PM 36.4067 -114.4350 250° West 320 368 12,200 -1,222 Descending Los Angeles Center
Sat 09:03:06 PM 36.3847 -114.4778 238° Southwest 311 358 11,700 -1,143 Descending Los Angeles Center
Sat 09:03:48 PM 36.3431 -114.4922 196° South 306 352 11,000 -1,377 Descending Los Angeles Center
Sat 09:04:07 PM 36.3083 -114.5039 195° South 292 336 10,300 -1,300 Descending Los Angeles Center
Sat 09:04:48 PM 36.2650 -114.5136 190° South 291 335 9,700 -689 Descending Los Angeles Center
Sat 09:05:08 PM 36.2344 -114.5317 205° Southwest 273 314 9,600 -689 Descending Los Angeles Center
Sat 09:05:49 PM 36.1986 -114.5725 223° Southwest 253 291 9,000 -885 Descending Los Angeles Center
Sat 09:06:09 PM 36.1856 -114.5936 233° Southwest 239 275 8,700 -885 Descending Los Angeles Center
Sat 09:06:50 PM 36.1611 -114.6336 233° Southwest 231 266 8,100 -667 Descending Los Angeles Center
Sat 09:07:03 PM 36.1567 -114.6486 250° West 238 274 8,100  Level Los Angeles Center
Sat 09:07:58 PM 36.1306 -114.7161 244° Southwest 233 268 8,100 -436 Level Los Angeles Center
Sat 09:08:53 PM 36.1064 -114.7828 246° West 232 267 7,300 -828 Descending Los Angeles Center
Sat 09:09:54 PM 36.0789 -114.8519 244° Southwest 232 267 6,500 -627 Descending Los Angeles Center
Sat 09:10:00 PM 36.0767 -114.8644 258° West 227 261 6,600 -400 Climbing Los Angeles Center
Sat 09:10:54 PM 36.0736 -114.9189 266° West 192 221 6,100 -655 Descending Los Angeles Center
Sat 09:10:55 PM 36.0744 -114.9233 283° West 201 231 6,000 -1,519 Descending Los Angeles Center
Sat 09:12:13 PM 36.0736 -114.9986 269° West 168 193 4,100 -1,171 Descending Los Angeles Center
Sat 09:12:58 PM 36.0736 -115.0389 270° West 170 196 3,600 -735 Descending Los Angeles Center
Sat 09:13:02 PM 36.0728 -115.0442 259° West 170 196 3,500 -871 Descending Los Angeles Center
Sat 09:14:00 PM 36.0733 -115.0919 271° West 145 167 2,700 -818 Descending Los Angeles Center
Sat 09:14:08 PM 36.0742 -115.0997 278° West 138 159 2,600 -590 Descending Los Angeles Center
Sat 09:15:01 PM 36.0731 -115.1419 268° West 141 162 2,100 -566 Descending Los Angeles Center

Login

Don't have an account? Register now (free) for customized features, flight alerts, and more!